sensor_id;sensor_type;location;lat;lon;timestamp;temperature;humidity
27667;DHT22;15074;50.940;5.282;2024-03-23T00:55:27;7.40;99.90
27667;DHT22;15074;50.940;5.282;2024-03-23T00:57:53;7.60;99.90
27667;DHT22;15074;50.940;5.282;2024-03-23T01:00:18;7.50;99.90
27667;DHT22;15074;50.940;5.282;2024-03-23T01:02:44;7.60;99.90
27667;DHT22;15074;50.940;5.282;2024-03-23T01:05:10;7.40;99.90
27667;DHT22;15074;50.940;5.282;2024-03-23T01:07:35;7.10;99.90
27667;DHT22;15074;50.940;5.282;2024-03-23T01:10:01;7.00;99.90
27667;DHT22;15074;50.940;5.282;2024-03-23T01:12:26;6.90;99.90
27667;DHT22;15074;50.940;5.282;2024-03-23T01:14:52;6.90;99.90
27667;DHT22;15074;50.940;5.282;2024-03-23T01:17:18;7.10;99.90
27667;DHT22;15074;50.940;5.282;2024-03-23T01:19:43;6.90;99.90
27667;DHT22;15074;50.940;5.282;2024-03-23T01:22:09;6.80;99.90
27667;DHT22;15074;50.940;5.282;2024-03-23T01:24:38;6.80;99.90
27667;DHT22;15074;50.940;5.282;2024-03-23T01:27:04;6.80;99.90
27667;DHT22;15074;50.940;5.282;2024-03-23T01:29:30;6.90;99.90
27667;DHT22;15074;50.940;5.282;2024-03-23T01:31:55;7.00;99.90
27667;DHT22;15074;50.940;5.282;2024-03-23T01:34:21;6.90;99.90
27667;DHT22;15074;50.940;5.282;2024-03-23T01:36:47;6.70;99.90
27667;DHT22;15074;50.940;5.282;2024-03-23T01:39:13;6.70;99.90
27667;DHT22;15074;50.940;5.282;2024-03-23T01:41:40;6.70;99.90
27667;DHT22;15074;50.940;5.282;2024-03-23T01:44:08;6.50;99.90
27667;DHT22;15074;50.940;5.282;2024-03-23T01:46:34;6.50;99.90
27667;DHT22;15074;50.940;5.282;2024-03-23T01:49:01;6.60;99.90
27667;DHT22;15074;50.940;5.282;2024-03-23T01:51:27;6.60;99.90
27667;DHT22;15074;50.940;5.282;2024-03-23T01:53:54;6.70;99.90
27667;DHT22;15074;50.940;5.282;2024-03-23T01:56:21;6.90;99.90
27667;DHT22;15074;50.940;5.282;2024-03-23T01:58:47;6.80;99.90
27667;DHT22;15074;50.940;5.282;2024-03-23T02:01:12;6.80;99.90
27667;DHT22;15074;50.940;5.282;2024-03-23T02:03:38;6.70;99.90
27667;DHT22;15074;50.940;5.282;2024-03-23T02:06:04;6.80;99.90
27667;DHT22;15074;50.940;5.282;2024-03-23T02:08:32;6.90;99.90
27667;DHT22;15074;50.940;5.282;2024-03-23T02:10:58;7.00;99.90
27667;DHT22;15074;50.940;5.282;2024-03-23T02:13:24;7.10;99.90
27667;DHT22;15074;50.940;5.282;2024-03-23T02:15:50;6.90;99.90
27667;DHT22;15074;50.940;5.282;2024-03-23T02:18:15;7.10;99.90
27667;DHT22;15074;50.940;5.282;2024-03-23T02:20:41;7.30;99.90
27667;DHT22;15074;50.940;5.282;2024-03-23T02:23:13;7.20;99.90
27667;DHT22;15074;50.940;5.282;2024-03-23T02:25:39;7.10;99.90
27667;DHT22;15074;50.940;5.282;2024-03-23T02:28:05;7.00;99.90
27667;DHT22;15074;50.940;5.282;2024-03-23T02:30:30;6.90;99.90
27667;DHT22;15074;50.940;5.282;2024-03-23T02:32:56;7.00;99.90
27667;DHT22;15074;50.940;5.282;2024-03-23T02:35:22;7.00;99.90
27667;DHT22;15074;50.940;5.282;2024-03-23T02:37:47;7.00;99.90
27667;DHT22;15074;50.940;5.282;2024-03-23T02:40:16;7.00;99.90
27667;DHT22;15074;50.940;5.282;2024-03-23T02:42:42;7.00;99.90
27667;DHT22;15074;50.940;5.282;2024-03-23T02:45:08;6.80;99.90
27667;DHT22;15074;50.940;5.282;2024-03-23T02:47:34;6.70;99.90
27667;DHT22;15074;50.940;5.282;2024-03-23T02:50:00;6.70;99.90
27667;DHT22;15074;50.940;5.282;2024-03-23T02:52:26;6.80;99.90
27667;DHT22;15074;50.940;5.282;2024-03-23T02:54:51;6.70;99.90
27667;DHT22;15074;50.940;5.282;2024-03-23T02:57:17;6.70;99.90
27667;DHT22;15074;50.940;5.282;2024-03-23T02:59:42;6.80;99.90
27667;DHT22;15074;50.940;5.282;2024-03-23T03:02:08;6.80;99.90
27667;DHT22;15074;50.940;5.282;2024-03-23T03:04:34;6.70;99.90
27667;DHT22;15074;50.940;5.282;2024-03-23T03:07:00;6.80;99.90
27667;DHT22;15074;50.940;5.282;2024-03-23T03:09:26;7.00;99.90
27667;DHT22;15074;50.940;5.282;2024-03-23T03:11:51;7.00;99.90
27667;DHT22;15074;50.940;5.282;2024-03-23T03:14:17;6.90;99.90
27667;DHT22;15074;50.940;5.282;2024-03-23T03:16:42;6.90;99.90
27667;DHT22;15074;50.940;5.282;2024-03-23T03:19:08;7.00;99.90
27667;DHT22;15074;50.940;5.282;2024-03-23T03:21:35;6.80;99.90
27667;DHT22;15074;50.940;5.282;2024-03-23T03:24:01;6.80;99.90
27667;DHT22;15074;50.940;5.282;2024-03-23T03:26:27;6.60;99.90
27667;DHT22;15074;50.940;5.282;2024-03-23T03:28:53;6.70;99.90
27667;DHT22;15074;50.940;5.282;2024-03-23T03:31:18;6.60;99.90
27667;DHT22;15074;50.940;5.282;2024-03-23T03:33:44;6.50;99.90
27667;DHT22;15074;50.940;5.282;2024-03-23T03:36:10;6.40;99.90
27667;DHT22;15074;50.940;5.282;2024-03-23T03:38:36;6.40;99.90
27667;DHT22;15074;50.940;5.282;2024-03-23T03:41:02;6.60;99.90
27667;DHT22;15074;50.940;5.282;2024-03-23T03:43:28;6.70;99.90
27667;DHT22;15074;50.940;5.282;2024-03-23T03:45:55;6.50;99.90
27667;DHT22;15074;50.940;5.282;2024-03-23T03:48:21;6.50;99.90
27667;DHT22;15074;50.940;5.282;2024-03-23T03:50:47;6.40;99.90
27667;DHT22;15074;50.940;5.282;2024-03-23T03:53:12;6.40;99.90
27667;DHT22;15074;50.940;5.282;2024-03-23T03:55:38;6.40;99.90
27667;DHT22;15074;50.940;5.282;2024-03-23T03:58:04;6.40;99.90
27667;DHT22;15074;50.940;5.282;2024-03-23T04:00:30;6.40;99.90
27667;DHT22;15074;50.940;5.282;2024-03-23T04:02:56;6.40;99.90
27667;DHT22;15074;50.940;5.282;2024-03-23T04:05:22;6.50;99.90
27667;DHT22;15074;50.940;5.282;2024-03-23T04:07:48;6.60;99.90
27667;DHT22;15074;50.940;5.282;2024-03-23T04:10:14;6.50;99.90
27667;DHT22;15074;50.940;5.282;2024-03-23T04:12:41;6.40;99.90
27667;DHT22;15074;50.940;5.282;2024-03-23T04:15:07;6.40;99.90
27667;DHT22;15074;50.940;5.282;2024-03-23T04:17:33;6.30;99.90
27667;DHT22;15074;50.940;5.282;2024-03-23T04:20:00;6.30;99.90
27667;DHT22;15074;50.940;5.282;2024-03-23T04:22:26;6.40;99.90
27667;DHT22;15074;50.940;5.282;2024-03-23T04:24:56;6.30;99.90
27667;DHT22;15074;50.940;5.282;2024-03-23T04:27:25;6.30;99.90
27667;DHT22;15074;50.940;5.282;2024-03-23T04:29:51;6.20;99.90
27667;DHT22;15074;50.940;5.282;2024-03-23T04:32:18;6.30;99.90
27667;DHT22;15074;50.940;5.282;2024-03-23T04:34:44;6.20;99.90
27667;DHT22;15074;50.940;5.282;2024-03-23T04:37:11;6.20;99.90
27667;DHT22;15074;50.940;5.282;2024-03-23T04:39:37;6.20;99.90
27667;DHT22;15074;50.940;5.282;2024-03-23T04:42:03;6.20;99.90
27667;DHT22;15074;50.940;5.282;2024-03-23T04:44:29;6.40;99.90
27667;DHT22;15074;50.940;5.282;2024-03-23T04:46:56;6.30;99.90
27667;DHT22;15074;50.940;5.282;2024-03-23T04:49:22;6.30;99.90
27667;DHT22;15074;50.940;5.282;2024-03-23T04:51:48;6.40;99.90
27667;DHT22;15074;50.940;5.282;2024-03-23T04:54:13;6.50;99.90
27667;DHT22;15074;50.940;5.282;2024-03-23T04:56:39;6.30;99.90
27667;DHT22;15074;50.940;5.282;2024-03-23T04:59:04;6.10;99.90
27667;DHT22;15074;50.940;5.282;2024-03-23T05:01:33;6.00;99.90
27667;DHT22;15074;50.940;5.282;2024-03-23T05:03:59;6.00;99.90
27667;DHT22;15074;50.940;5.282;2024-03-23T05:06:25;5.90;99.90
27667;DHT22;15074;50.940;5.282;2024-03-23T05:08:51;5.90;99.90
27667;DHT22;15074;50.940;5.282;2024-03-23T05:11:17;5.90;99.90
27667;DHT22;15074;50.940;5.282;2024-03-23T05:13:43;5.90;99.90
27667;DHT22;15074;50.940;5.282;2024-03-23T05:16:09;5.90;99.90
27667;DHT22;15074;50.940;5.282;2024-03-23T05:18:53;5.90;99.90
27667;DHT22;15074;50.940;5.282;2024-03-23T05:21:19;6.00;99.90
27667;DHT22;15074;50.940;5.282;2024-03-23T05:23:44;6.00;99.90
27667;DHT22;15074;50.940;5.282;2024-03-23T05:26:17;6.20;99.90
27667;DHT22;15074;50.940;5.282;2024-03-23T05:31:50;6.40;99.90
27667;DHT22;15074;50.940;5.282;2024-03-23T05:34:17;6.40;99.90
27667;DHT22;15074;50.940;5.282;2024-03-23T05:37:15;6.40;99.90
27667;DHT22;15074;50.940;5.282;2024-03-23T05:39:41;6.50;99.90
27667;DHT22;15074;50.940;5.282;2024-03-23T05:42:06;6.40;99.90
27667;DHT22;15074;50.940;5.282;2024-03-23T05:44:32;6.40;99.90
27667;DHT22;15074;50.940;5.282;2024-03-23T05:46:58;6.30;99.90
27667;DHT22;15074;50.940;5.282;2024-03-23T05:49:24;6.40;99.90
27667;DHT22;15074;50.940;5.282;2024-03-23T05:51:52;6.40;99.90
27667;DHT22;15074;50.940;5.282;2024-03-23T05:54:18;6.50;99.90
27667;DHT22;15074;50.940;5.282;2024-03-23T05:56:43;6.60;99.90
27667;DHT22;15074;50.940;5.282;2024-03-23T05:59:09;6.70;99.90
27667;DHT22;15074;50.940;5.282;2024-03-23T06:01:35;6.70;99.90
27667;DHT22;15074;50.940;5.282;2024-03-23T06:04:00;6.60;99.90
27667;DHT22;15074;50.940;5.282;2024-03-23T06:06:27;6.50;99.90
27667;DHT22;15074;50.940;5.282;2024-03-23T06:08:55;6.60;99.90
27667;DHT22;15074;50.940;5.282;2024-03-23T06:11:26;6.60;99.90
27667;DHT22;15074;50.940;5.282;2024-03-23T06:16:55;6.70;99.90
27667;DHT22;15074;50.940;5.282;2024-03-23T06:19:21;6.80;99.90
27667;DHT22;15074;50.940;5.282;2024-03-23T06:22:12;6.80;99.90
27667;DHT22;15074;50.940;5.282;2024-03-23T06:24:38;6.90;99.90
27667;DHT22;15074;50.940;5.282;2024-03-23T06:27:04;6.90;99.90
27667;DHT22;15074;50.940;5.282;2024-03-23T06:29:30;6.90;99.90
27667;DHT22;15074;50.940;5.282;2024-03-23T06:31:55;6.90;99.90
27667;DHT22;15074;50.940;5.282;2024-03-23T06:34:21;6.70;99.90
27667;DHT22;15074;50.940;5.282;2024-03-23T06:36:48;6.70;99.90
27667;DHT22;15074;50.940;5.282;2024-03-23T06:39:15;6.80;99.90
27667;DHT22;15074;50.940;5.282;2024-03-23T06:41:50;7.10;99.90
27667;DHT22;15074;50.940;5.282;2024-03-23T06:44:16;7.80;99.90
27667;DHT22;15074;50.940;5.282;2024-03-23T06:46:42;8.40;99.90
27667;DHT22;15074;50.940;5.282;2024-03-23T06:49:08;8.90;99.90
27667;DHT22;15074;50.940;5.282;2024-03-23T06:51:34;9.50;99.90
27667;DHT22;15074;50.940;5.282;2024-03-23T06:54:00;10.10;99.90
27667;DHT22;15074;50.940;5.282;2024-03-23T06:56:25;10.50;99.90
27667;DHT22;15074;50.940;5.282;2024-03-23T06:58:51;10.60;99.90
27667;DHT22;15074;50.940;5.282;2024-03-23T07:01:16;10.40;99.90
27667;DHT22;15074;50.940;5.282;2024-03-23T07:03:44;10.30;99.90
27667;DHT22;15074;50.940;5.282;2024-03-23T07:06:10;9.70;99.90
27667;DHT22;15074;50.940;5.282;2024-03-23T07:08:36;9.20;99.90
27667;DHT22;15074;50.940;5.282;2024-03-23T07:11:02;8.80;99.90
27667;DHT22;15074;50.940;5.282;2024-03-23T07:13:28;8.60;99.90
27667;DHT22;15074;50.940;5.282;2024-03-23T07:15:54;8.80;99.90
27667;DHT22;15074;50.940;5.282;2024-03-23T07:18:21;9.50;99.90
27667;DHT22;15074;50.940;5.282;2024-03-23T07:20:56;10.50;99.90
27667;DHT22;15074;50.940;5.282;2024-03-23T07:23:25;11.30;99.90
27667;DHT22;15074;50.940;5.282;2024-03-23T07:28:23;11.40;99.90
27667;DHT22;15074;50.940;5.282;2024-03-23T07:31:16;11.10;99.90
27667;DHT22;15074;50.940;5.282;2024-03-23T07:33:46;10.30;99.90
27667;DHT22;15074;50.940;5.282;2024-03-23T07:36:12;10.00;99.90
27667;DHT22;15074;50.940;5.282;2024-03-23T07:38:40;9.80;99.90
27667;DHT22;15074;50.940;5.282;2024-03-23T07:41:08;9.60;99.90
27667;DHT22;15074;50.940;5.282;2024-03-23T07:43:34;9.40;99.90
27667;DHT22;15074;50.940;5.282;2024-03-23T07:46:00;9.30;99.90
27667;DHT22;15074;50.940;5.282;2024-03-23T07:48:27;9.30;99.90
27667;DHT22;15074;50.940;5.282;2024-03-23T07:51:03;9.10;99.90
27667;DHT22;15074;50.940;5.282;2024-03-23T07:53:33;9.00;99.90
27667;DHT22;15074;50.940;5.282;2024-03-23T07:56:01;9.80;99.90
27667;DHT22;15074;50.940;5.282;2024-03-23T07:58:27;10.90;99.90
27667;DHT22;15074;50.940;5.282;2024-03-23T08:00:54;11.90;99.90
27667;DHT22;15074;50.940;5.282;2024-03-23T08:03:20;11.70;99.90
27667;DHT22;15074;50.940;5.282;2024-03-23T08:05:46;11.80;99.90
27667;DHT22;15074;50.940;5.282;2024-03-23T08:08:12;11.60;99.90
27667;DHT22;15074;50.940;5.282;2024-03-23T08:10:50;11.30;99.90
27667;DHT22;15074;50.940;5.282;2024-03-23T08:13:16;10.70;99.90
27667;DHT22;15074;50.940;5.282;2024-03-23T08:15:42;10.10;99.90
27667;DHT22;15074;50.940;5.282;2024-03-23T08:18:08;9.70;99.90
27667;DHT22;15074;50.940;5.282;2024-03-23T08:20:34;9.60;99.90
27667;DHT22;15074;50.940;5.282;2024-03-23T08:22:59;9.50;99.90
27667;DHT22;15074;50.940;5.282;2024-03-23T08:25:25;9.90;99.90
27667;DHT22;15074;50.940;5.282;2024-03-23T08:27:51;9.70;99.90
27667;DHT22;15074;50.940;5.282;2024-03-23T08:30:17;9.40;99.90
27667;DHT22;15074;50.940;5.282;2024-03-23T08:32:44;9.60;99.90
27667;DHT22;15074;50.940;5.282;2024-03-23T08:35:09;10.00;99.90
27667;DHT22;15074;50.940;5.282;2024-03-23T08:37:35;10.30;99.90
27667;DHT22;15074;50.940;5.282;2024-03-23T08:40:00;10.50;99.90
27667;DHT22;15074;50.940;5.282;2024-03-23T08:42:26;11.50;99.90
27667;DHT22;15074;50.940;5.282;2024-03-23T08:44:52;12.30;99.90
27667;DHT22;15074;50.940;5.282;2024-03-23T08:47:17;12.60;99.90
27667;DHT22;15074;50.940;5.282;2024-03-23T08:49:44;12.50;99.90
27667;DHT22;15074;50.940;5.282;2024-03-23T08:52:10;11.90;99.90
27667;DHT22;15074;50.940;5.282;2024-03-23T08:54:35;11.50;99.90
27667;DHT22;15074;50.940;5.282;2024-03-23T08:57:01;11.40;99.90
27667;DHT22;15074;50.940;5.282;2024-03-23T08:59:27;12.00;99.90
27667;DHT22;15074;50.940;5.282;2024-03-23T09:01:53;12.50;99.90
27667;DHT22;15074;50.940;5.282;2024-03-23T09:04:19;12.40;99.90
27667;DHT22;15074;50.940;5.282;2024-03-23T09:06:45;12.00;99.90
27667;DHT22;15074;50.940;5.282;2024-03-23T09:09:10;12.60;99.90
27667;DHT22;15074;50.940;5.282;2024-03-23T09:11:36;12.80;99.90
27667;DHT22;15074;50.940;5.282;2024-03-23T09:14:03;13.10;99.90
27667;DHT22;15074;50.940;5.282;2024-03-23T09:16:28;12.30;99.90
27667;DHT22;15074;50.940;5.282;2024-03-23T09:18:54;11.50;99.90
27667;DHT22;15074;50.940;5.282;2024-03-23T09:21:20;10.90;99.90
27667;DHT22;15074;50.940;5.282;2024-03-23T09:23:45;10.80;99.90
27667;DHT22;15074;50.940;5.282;2024-03-23T09:26:11;11.20;99.90
27667;DHT22;15074;50.940;5.282;2024-03-23T09:28:37;11.50;99.90
27667;DHT22;15074;50.940;5.282;2024-03-23T09:31:07;11.10;99.90
27667;DHT22;15074;50.940;5.282;2024-03-23T09:33:33;10.50;99.90
27667;DHT22;15074;50.940;5.282;2024-03-23T09:36:03;10.20;99.90
27667;DHT22;15074;50.940;5.282;2024-03-23T09:38:29;11.40;99.90
27667;DHT22;15074;50.940;5.282;2024-03-23T09:40:55;11.80;99.90
27667;DHT22;15074;50.940;5.282;2024-03-23T09:43:20;11.80;99.90
27667;DHT22;15074;50.940;5.282;2024-03-23T09:45:46;11.50;99.90
27667;DHT22;15074;50.940;5.282;2024-03-23T09:48:12;11.50;99.90
27667;DHT22;15074;50.940;5.282;2024-03-23T09:50:39;11.40;99.90
27667;DHT22;15074;50.940;5.282;2024-03-23T09:53:06;11.20;99.90
27667;DHT22;15074;50.940;5.282;2024-03-23T09:55:32;10.60;99.90
27667;DHT22;15074;50.940;5.282;2024-03-23T09:57:59;9.90;99.90
27667;DHT22;15074;50.940;5.282;2024-03-23T10:00:25;9.80;99.90
27667;DHT22;15074;50.940;5.282;2024-03-23T10:02:51;9.70;99.90
27667;DHT22;15074;50.940;5.282;2024-03-23T10:05:20;9.50;99.90
27667;DHT22;15074;50.940;5.282;2024-03-23T10:07:48;9.50;99.90
27667;DHT22;15074;50.940;5.282;2024-03-23T10:10:15;9.40;99.90
27667;DHT22;15074;50.940;5.282;2024-03-23T10:12:48;9.60;99.90
27667;DHT22;15074;50.940;5.282;2024-03-23T10:15:25;11.10;99.90
27667;DHT22;15074;50.940;5.282;2024-03-23T10:17:51;11.70;99.90
27667;DHT22;15074;50.940;5.282;2024-03-23T10:20:21;12.20;99.90
27667;DHT22;15074;50.940;5.282;2024-03-23T10:22:50;12.60;99.90
27667;DHT22;15074;50.940;5.282;2024-03-23T10:25:17;13.20;99.90
27667;DHT22;15074;50.940;5.282;2024-03-23T10:27:43;14.20;99.90
27667;DHT22;15074;50.940;5.282;2024-03-23T10:30:10;14.50;99.90
27667;DHT22;15074;50.940;5.282;2024-03-23T10:32:37;14.30;99.90
27667;DHT22;15074;50.940;5.282;2024-03-23T10:35:19;14.20;99.90
27667;DHT22;15074;50.940;5.282;2024-03-23T10:37:47;15.10;99.90
27667;DHT22;15074;50.940;5.282;2024-03-23T10:40:15;15.50;99.90
27667;DHT22;15074;50.940;5.282;2024-03-23T10:42:41;16.00;99.90
27667;DHT22;15074;50.940;5.282;2024-03-23T10:45:08;14.60;99.90
27667;DHT22;15074;50.940;5.282;2024-03-23T10:47:35;12.70;99.90
27667;DHT22;15074;50.940;5.282;2024-03-23T10:50:03;12.20;99.90
27667;DHT22;15074;50.940;5.282;2024-03-23T10:52:29;11.30;99.90
27667;DHT22;15074;50.940;5.282;2024-03-23T10:54:55;10.10;99.90
27667;DHT22;15074;50.940;5.282;2024-03-23T10:57:26;9.10;99.90
27667;DHT22;15074;50.940;5.282;2024-03-23T10:59:52;8.00;99.90
27667;DHT22;15074;50.940;5.282;2024-03-23T11:02:20;7.50;99.90
27667;DHT22;15074;50.940;5.282;2024-03-23T11:04:45;7.10;99.90
27667;DHT22;15074;50.940;5.282;2024-03-23T11:09:52;7.30;99.90
27667;DHT22;15074;50.940;5.282;2024-03-23T11:15:02;8.60;99.90
27667;DHT22;15074;50.940;5.282;2024-03-23T11:17:29;8.90;99.90
27667;DHT22;15074;50.940;5.282;2024-03-23T11:22:46;9.10;99.90
27667;DHT22;15074;50.940;5.282;2024-03-23T11:27:45;9.60;99.90
27667;DHT22;15074;50.940;5.282;2024-03-23T11:30:18;11.20;99.90
27667;DHT22;15074;50.940;5.282;2024-03-23T11:32:45;12.60;99.90
27667;DHT22;15074;50.940;5.282;2024-03-23T11:35:28;14.20;99.90
27667;DHT22;15074;50.940;5.282;2024-03-23T11:38:14;14.50;99.90
27667;DHT22;15074;50.940;5.282;2024-03-23T11:40:51;13.80;99.90
27667;DHT22;15074;50.940;5.282;2024-03-23T11:43:18;13.10;99.90
27667;DHT22;15074;50.940;5.282;2024-03-23T11:45:51;12.10;99.90
27667;DHT22;15074;50.940;5.282;2024-03-23T11:48:20;11.20;99.90
27667;DHT22;15074;50.940;5.282;2024-03-23T11:50:55;10.70;99.90
27667;DHT22;15074;50.940;5.282;2024-03-23T11:53:23;10.30;99.90
27667;DHT22;15074;50.940;5.282;2024-03-23T11:55:59;10.00;99.90
27667;DHT22;15074;50.940;5.282;2024-03-23T11:58:27;9.90;99.90
27667;DHT22;15074;50.940;5.282;2024-03-23T12:01:00;9.80;99.90
27667;DHT22;15074;50.940;5.282;2024-03-23T12:03:30;9.60;99.90
27667;DHT22;15074;50.940;5.282;2024-03-23T12:06:03;9.00;99.90
27667;DHT22;15074;50.940;5.282;2024-03-23T12:08:33;8.50;99.90
27667;DHT22;15074;50.940;5.282;2024-03-23T12:11:15;8.30;99.90
27667;DHT22;15074;50.940;5.282;2024-03-23T12:13:45;8.30;99.90
27667;DHT22;15074;50.940;5.282;2024-03-23T12:16:20;8.30;99.90
27667;DHT22;15074;50.940;5.282;2024-03-23T12:18:50;8.40;99.90
27667;DHT22;15074;50.940;5.282;2024-03-23T12:21:16;9.30;99.90
27667;DHT22;15074;50.940;5.282;2024-03-23T12:23:43;10.70;99.90
27667;DHT22;15074;50.940;5.282;2024-03-23T12:26:10;11.90;99.90
27667;DHT22;15074;50.940;5.282;2024-03-23T12:28:37;12.70;99.90
27667;DHT22;15074;50.940;5.282;2024-03-23T12:31:03;12.70;99.90
27667;DHT22;15074;50.940;5.282;2024-03-23T12:33:29;12.40;99.90
27667;DHT22;15074;50.940;5.282;2024-03-23T12:35:54;12.10;99.90
27667;DHT22;15074;50.940;5.282;2024-03-23T12:38:20;11.90;99.90
27667;DHT22;15074;50.940;5.282;2024-03-23T12:40:47;12.40;99.90
27667;DHT22;15074;50.940;5.282;2024-03-23T12:43:15;13.10;99.90
27667;DHT22;15074;50.940;5.282;2024-03-23T12:45:48;13.50;99.90
27667;DHT22;15074;50.940;5.282;2024-03-23T12:48:14;12.90;99.90
27667;DHT22;15074;50.940;5.282;2024-03-23T12:50:39;12.40;99.90
27667;DHT22;15074;50.940;5.282;2024-03-23T12:53:05;11.80;99.90
27667;DHT22;15074;50.940;5.282;2024-03-23T12:55:30;11.60;99.90
27667;DHT22;15074;50.940;5.282;2024-03-23T12:57:56;11.20;99.90
27667;DHT22;15074;50.940;5.282;2024-03-23T13:00:22;10.40;99.90
27667;DHT22;15074;50.940;5.282;2024-03-23T13:02:47;9.70;99.90
27667;DHT22;15074;50.940;5.282;2024-03-23T13:05:13;9.20;99.90
27667;DHT22;15074;50.940;5.282;2024-03-23T13:07:39;9.00;99.90
27667;DHT22;15074;50.940;5.282;2024-03-23T13:10:08;9.60;99.90
27667;DHT22;15074;50.940;5.282;2024-03-23T13:12:34;10.40;99.90
27667;DHT22;15074;50.940;5.282;2024-03-23T13:15:00;10.40;99.90
27667;DHT22;15074;50.940;5.282;2024-03-23T13:17:26;10.60;99.90
27667;DHT22;15074;50.940;5.282;2024-03-23T13:19:53;10.30;99.90
27667;DHT22;15074;50.940;5.282;2024-03-23T13:22:18;10.00;99.90
27667;DHT22;15074;50.940;5.282;2024-03-23T13:24:44;9.70;99.90
27667;DHT22;15074;50.940;5.282;2024-03-23T13:27:10;9.50;99.90
27667;DHT22;15074;50.940;5.282;2024-03-23T13:29:36;9.30;99.90
27667;DHT22;15074;50.940;5.282;2024-03-23T13:32:03;8.90;99.90
27667;DHT22;15074;50.940;5.282;2024-03-23T13:34:29;8.80;99.90
27667;DHT22;15074;50.940;5.282;2024-03-23T13:36:55;9.10;99.90
27667;DHT22;15074;50.940;5.282;2024-03-23T13:39:24;10.00;99.90
27667;DHT22;15074;50.940;5.282;2024-03-23T13:41:50;11.20;99.90
27667;DHT22;15074;50.940;5.282;2024-03-23T13:44:16;11.90;99.90
27667;DHT22;15074;50.940;5.282;2024-03-23T13:46:42;12.50;99.90
27667;DHT22;15074;50.940;5.282;2024-03-23T13:49:27;13.00;99.90
27667;DHT22;15074;50.940;5.282;2024-03-23T13:51:57;13.00;99.90
27667;DHT22;15074;50.940;5.282;2024-03-23T13:54:26;13.50;99.90
27667;DHT22;15074;50.940;5.282;2024-03-23T13:56:52;13.60;99.90
27667;DHT22;15074;50.940;5.282;2024-03-23T13:59:19;13.90;99.90
27667;DHT22;15074;50.940;5.282;2024-03-23T14:01:45;14.00;99.90
27667;DHT22;15074;50.940;5.282;2024-03-23T14:04:13;13.80;99.90
27667;DHT22;15074;50.940;5.282;2024-03-23T14:06:42;13.00;99.90
27667;DHT22;15074;50.940;5.282;2024-03-23T14:09:07;12.40;99.90
27667;DHT22;15074;50.940;5.282;2024-03-23T14:11:35;11.70;99.90
27667;DHT22;15074;50.940;5.282;2024-03-23T14:14:01;11.10;99.90
27667;DHT22;15074;50.940;5.282;2024-03-23T14:16:29;10.30;99.90
27667;DHT22;15074;50.940;5.282;2024-03-23T14:18:55;9.30;99.90
27667;DHT22;15074;50.940;5.282;2024-03-23T14:21:20;8.90;99.90
27667;DHT22;15074;50.940;5.282;2024-03-23T14:23:46;8.80;99.90
27667;DHT22;15074;50.940;5.282;2024-03-23T14:26:12;8.70;99.90
27667;DHT22;15074;50.940;5.282;2024-03-23T14:28:37;8.70;99.90
27667;DHT22;15074;50.940;5.282;2024-03-23T14:31:03;8.90;99.90
27667;DHT22;15074;50.940;5.282;2024-03-23T14:33:39;9.50;99.90
27667;DHT22;15074;50.940;5.282;2024-03-23T14:36:07;10.10;99.90
27667;DHT22;15074;50.940;5.282;2024-03-23T14:38:33;10.60;99.90
27667;DHT22;15074;50.940;5.282;2024-03-23T14:41:00;10.80;99.90
27667;DHT22;15074;50.940;5.282;2024-03-23T14:43:28;11.20;99.90
27667;DHT22;15074;50.940;5.282;2024-03-23T14:48:36;11.60;99.90
27667;DHT22;15074;50.940;5.282;2024-03-23T14:51:03;11.40;99.90
27667;DHT22;15074;50.940;5.282;2024-03-23T14:53:35;11.30;99.90
27667;DHT22;15074;50.940;5.282;2024-03-23T14:56:02;11.30;99.90
27667;DHT22;15074;50.940;5.282;2024-03-23T14:58:29;11.20;99.90
27667;DHT22;15074;50.940;5.282;2024-03-23T15:01:10;11.30;99.90
27667;DHT22;15074;50.940;5.282;2024-03-23T15:03:39;10.90;99.90
27667;DHT22;15074;50.940;5.282;2024-03-23T15:06:05;10.90;99.90
27667;DHT22;15074;50.940;5.282;2024-03-23T15:08:31;10.80;99.90
27667;DHT22;15074;50.940;5.282;2024-03-23T15:11:01;10.80;99.90
27667;DHT22;15074;50.940;5.282;2024-03-23T15:13:33;10.80;99.90
27667;DHT22;15074;50.940;5.282;2024-03-23T15:15:59;10.30;99.90
27667;DHT22;15074;50.940;5.282;2024-03-23T15:18:25;10.20;99.90
27667;DHT22;15074;50.940;5.282;2024-03-23T15:20:56;10.40;99.90
27667;DHT22;15074;50.940;5.282;2024-03-23T15:23:22;10.50;99.90
27667;DHT22;15074;50.940;5.282;2024-03-23T15:25:58;10.60;99.90
27667;DHT22;15074;50.940;5.282;2024-03-23T15:28:24;10.80;99.90
27667;DHT22;15074;50.940;5.282;2024-03-23T15:31:05;10.80;99.90
27667;DHT22;15074;50.940;5.282;2024-03-23T15:33:32;10.80;99.90
27667;DHT22;15074;50.940;5.282;2024-03-23T15:36:37;10.60;99.90
27667;DHT22;15074;50.940;5.282;2024-03-23T15:42:20;10.10;99.90
27667;DHT22;15074;50.940;5.282;2024-03-23T15:44:45;10.00;99.90
27667;DHT22;15074;50.940;5.282;2024-03-23T15:47:11;10.00;99.90
27667;DHT22;15074;50.940;5.282;2024-03-23T15:49:37;10.10;99.90
27667;DHT22;15074;50.940;5.282;2024-03-23T15:52:02;10.10;99.90
27667;DHT22;15074;50.940;5.282;2024-03-23T15:54:28;9.90;99.90
27667;DHT22;15074;50.940;5.282;2024-03-23T15:56:54;9.90;99.90
27667;DHT22;15074;50.940;5.282;2024-03-23T15:59:20;10.00;99.90
27667;DHT22;15074;50.940;5.282;2024-03-23T16:14:42;9.60;99.90
27667;DHT22;15074;50.940;5.282;2024-03-23T16:17:08;9.60;99.90
27667;DHT22;15074;50.940;5.282;2024-03-23T16:19:34;9.60;99.90
27667;DHT22;15074;50.940;5.282;2024-03-23T16:38:20;8.70;99.90
27667;DHT22;15074;50.940;5.282;2024-03-23T16:40:53;8.60;99.90
27667;DHT22;15074;50.940;5.282;2024-03-23T16:43:25;8.60;99.90
27667;DHT22;15074;50.940;5.282;2024-03-23T16:46:03;8.90;99.90
27667;DHT22;15074;50.940;5.282;2024-03-23T18:02:08;6.50;99.90
27667;DHT22;15074;50.940;5.282;2024-03-23T18:04:33;6.60;99.90
27667;DHT22;15074;50.940;5.282;2024-03-23T18:06:59;6.60;99.90
27667;DHT22;15074;50.940;5.282;2024-03-23T18:09:24;6.60;99.90
27667;DHT22;15074;50.940;5.282;2024-03-23T18:11:50;6.60;99.90
27667;DHT22;15074;50.940;5.282;2024-03-23T18:14:16;6.60;99.90
27667;DHT22;15074;50.940;5.282;2024-03-23T18:16:41;6.60;99.90
27667;DHT22;15074;50.940;5.282;2024-03-23T18:19:07;6.60;99.90
27667;DHT22;15074;50.940;5.282;2024-03-23T18:21:32;6.60;99.90
27667;DHT22;15074;50.940;5.282;2024-03-23T18:23:58;6.60;99.90
27667;DHT22;15074;50.940;5.282;2024-03-23T18:26:24;6.70;99.90
27667;DHT22;15074;50.940;5.282;2024-03-23T18:28:52;6.80;99.90
27667;DHT22;15074;50.940;5.282;2024-03-23T18:31:18;6.70;99.90
27667;DHT22;15074;50.940;5.282;2024-03-23T18:33:45;6.60;99.90
27667;DHT22;15074;50.940;5.282;2024-03-23T18:36:11;6.60;99.90
27667;DHT22;15074;50.940;5.282;2024-03-23T18:38:37;6.60;99.90
27667;DHT22;15074;50.940;5.282;2024-03-23T18:41:04;6.70;99.90
27667;DHT22;15074;50.940;5.282;2024-03-23T18:43:29;6.80;99.90